createdAt,value
2023-04-22T00:02:17.351Z,8.00
2023-04-22T00:04:47.399Z,8.23
2023-04-22T00:07:15.885Z,5.72
2023-04-22T00:09:43.241Z,8.45
2023-04-22T00:12:11.912Z,6.70
2023-04-22T00:14:38.969Z,9.20
2023-04-22T00:17:07.184Z,7.30
2023-04-22T00:19:34.712Z,7.05
2023-04-22T00:22:01.782Z,8.02
2023-04-22T00:24:29.447Z,7.03
2023-04-22T00:26:56.686Z,7.65
2023-04-22T00:29:23.497Z,7.55
2023-04-22T00:31:50.379Z,9.38
2023-04-22T00:34:20.484Z,6.45
2023-04-22T00:36:47.630Z,6.10
2023-04-22T00:39:15.112Z,7.32
2023-04-22T00:41:42.125Z,9.43
2023-04-22T00:44:12.632Z,6.53
2023-04-22T00:46:40.358Z,6.07
2023-04-22T00:49:08.129Z,5.32
2023-04-22T00:51:35.359Z,6.25
2023-04-22T00:54:02.451Z,4.50
2023-04-22T00:56:31.456Z,6.18
2023-04-22T00:58:58.809Z,6.95
2023-04-22T01:01:25.755Z,7.00
2023-04-22T01:03:53.349Z,6.03
2023-04-22T01:06:20.493Z,5.15
2023-04-22T01:08:48.056Z,7.13
2023-04-22T01:11:16.076Z,8.50
2023-04-22T01:13:43.080Z,7.18
2023-04-22T01:16:10.300Z,8.52
2023-04-22T01:18:37.335Z,8.80
2023-04-22T01:21:04.404Z,11.27
2023-04-22T01:23:31.292Z,9.30
2023-04-22T01:25:58.181Z,7.95
2023-04-22T01:28:25.877Z,7.57
2023-04-22T01:30:54.280Z,7.97
2023-04-22T01:33:21.072Z,8.85
2023-04-22T01:35:47.815Z,6.75
2023-04-22T01:38:14.507Z,7.95
2023-04-22T01:40:41.461Z,7.28
2023-04-22T01:43:08.230Z,7.03
2023-04-22T01:45:35.330Z,5.90
2023-04-22T01:48:02.605Z,7.13
2023-04-22T01:50:29.430Z,6.28
2023-04-22T01:52:57.375Z,5.47
2023-04-22T01:55:24.388Z,6.32
2023-04-22T01:57:52.341Z,8.32
2023-04-22T02:00:19.302Z,5.05
2023-04-22T02:02:48.043Z,5.95
2023-04-22T02:05:15.894Z,4.85
2023-04-22T02:07:45.396Z,4.50
2023-04-22T02:10:16.048Z,4.10
2023-04-22T02:12:42.781Z,4.22
2023-04-22T02:15:10.122Z,4.03
2023-04-22T02:17:36.896Z,4.45
2023-04-22T02:20:05.228Z,5.90
2023-04-22T02:22:32.608Z,4.45
2023-04-22T02:24:59.293Z,4.97
2023-04-22T02:27:25.949Z,4.00
2023-04-22T02:29:52.624Z,4.68
2023-04-22T02:32:19.653Z,6.70
2023-04-22T02:34:47.832Z,4.38
2023-04-22T02:37:14.582Z,5.75
2023-04-22T02:39:41.495Z,4.88
2023-04-22T02:42:08.455Z,5.38
2023-04-22T02:44:35.219Z,5.20
2023-04-22T02:47:03.811Z,5.22
2023-04-22T02:49:30.618Z,5.45
2023-04-22T02:51:57.450Z,4.85
2023-04-22T02:54:24.152Z,5.28
2023-04-22T02:56:51.005Z,4.97
2023-04-22T02:59:17.660Z,5.65
2023-04-22T03:01:44.478Z,5.18
2023-04-22T03:04:21.993Z,5.25
2023-04-22T03:06:49.801Z,6.75
2023-04-22T03:09:17.418Z,4.75
2023-04-22T03:11:44.516Z,5.07
2023-04-22T03:14:11.307Z,4.93
2023-04-22T03:16:38.782Z,5.07
2023-04-22T03:19:05.973Z,5.78
2023-04-22T03:21:32.742Z,5.05
2023-04-22T03:24:00.187Z,5.80
2023-04-22T03:26:31.118Z,5.30
2023-04-22T03:28:58.959Z,5.90
2023-04-22T03:31:25.723Z,5.55
2023-04-22T03:33:52.541Z,5.47
2023-04-22T03:36:27.681Z,5.30
2023-04-22T03:38:54.887Z,6.38
2023-04-22T03:41:23.588Z,6.95
2023-04-22T03:43:50.277Z,5.60
2023-04-22T03:46:17.627Z,6.22
2023-04-22T03:48:52.839Z,5.45
2023-04-22T03:51:27.813Z,5.15
2023-04-22T03:53:54.957Z,4.70
2023-04-22T03:56:24.722Z,4.88
2023-04-22T03:58:54.676Z,5.10
2023-04-22T04:01:21.683Z,5.82
2023-04-22T04:03:51.287Z,5.03
2023-04-22T04:06:19.360Z,5.78
2023-04-22T04:08:46.218Z,5.38
2023-04-22T04:11:13.062Z,5.15
2023-04-22T04:13:39.879Z,6.10
2023-04-22T04:16:16.862Z,7.53
2023-04-22T04:18:49.477Z,6.05
2023-04-22T04:21:16.186Z,5.45
2023-04-22T04:23:47.891Z,7.97
2023-04-22T04:26:18.109Z,5.63
2023-04-22T04:28:49.277Z,5.05
2023-04-22T04:31:17.726Z,6.82
2023-04-22T04:33:44.655Z,5.50
2023-04-22T04:36:11.396Z,6.32
2023-04-22T04:38:39.169Z,5.75
2023-04-22T04:41:05.858Z,4.93
2023-04-22T04:43:33.501Z,4.68
2023-04-22T04:46:10.947Z,5.63
2023-04-22T04:48:38.652Z,7.40
2023-04-22T04:51:08.050Z,5.90
2023-04-22T04:56:06.987Z,7.47
2023-04-22T04:58:34.775Z,9.15
2023-04-22T05:01:10.302Z,7.95
2023-04-22T05:03:37.374Z,10.63
2023-04-22T05:06:05.348Z,7.63
2023-04-22T05:08:32.932Z,8.00
2023-04-22T05:11:05.701Z,5.95
2023-04-22T05:13:32.586Z,7.57
2023-04-22T05:16:00.233Z,6.68
2023-04-22T05:18:27.451Z,5.60
2023-04-22T05:20:55.424Z,5.43
2023-04-22T05:23:22.635Z,4.75
2023-04-22T05:25:53.503Z,5.15
2023-04-22T05:28:20.827Z,5.07
2023-04-22T05:30:52.133Z,6.38
2023-04-22T05:33:18.844Z,4.65
2023-04-22T05:35:45.651Z,7.07
2023-04-22T05:38:12.940Z,10.02
2023-04-22T05:40:41.531Z,5.65
2023-04-22T05:43:10.867Z,8.32
2023-04-22T05:45:41.033Z,5.55
2023-04-22T05:48:10.546Z,6.55
2023-04-22T05:50:43.931Z,6.57
2023-04-22T05:53:10.611Z,6.07
2023-04-22T05:55:37.379Z,8.40
2023-04-22T05:58:07.162Z,6.00
2023-04-22T06:00:54.390Z,5.47
2023-04-22T06:03:49.291Z,6.30
2023-04-22T06:06:16.485Z,4.80
2023-04-22T06:08:43.142Z,7.75
2023-04-22T06:11:11.104Z,6.00
2023-04-22T06:13:37.911Z,5.72
2023-04-22T06:16:06.142Z,5.15
2023-04-22T06:18:36.006Z,6.65
2023-04-22T06:21:05.056Z,3.77
2023-04-22T06:23:31.721Z,5.20
2023-04-22T06:25:58.649Z,4.60
2023-04-22T06:28:25.335Z,4.88
2023-04-22T06:30:55.769Z,6.03
2023-04-22T06:33:22.611Z,8.10
2023-04-22T06:35:50.544Z,4.88
2023-04-22T06:38:17.436Z,5.20
2023-04-22T06:41:02.874Z,5.10
2023-04-22T06:46:19.723Z,5.80
2023-04-22T06:49:09.213Z,4.07
2023-04-22T06:52:02.162Z,5.53
2023-04-22T06:54:28.993Z,4.75
2023-04-22T06:56:55.765Z,4.80
2023-04-22T06:59:23.695Z,4.57
2023-04-22T07:01:50.575Z,6.72
2023-04-22T07:04:17.540Z,4.90
2023-04-22T07:06:44.749Z,4.25
2023-04-22T07:09:12.631Z,5.35
2023-04-22T07:11:39.434Z,5.15
2023-04-22T07:14:12.210Z,4.53
2023-04-22T07:16:39.144Z,4.00
2023-04-22T07:19:08.813Z,4.85
2023-04-22T07:21:35.520Z,6.20
2023-04-22T07:24:02.174Z,4.85
2023-04-22T07:26:28.952Z,5.85
2023-04-22T07:28:55.609Z,5.35
2023-04-22T07:31:22.326Z,5.28
2023-04-22T07:33:49.103Z,3.90
2023-04-22T07:36:15.760Z,5.90
2023-04-22T07:38:42.442Z,4.78
2023-04-22T07:41:09.072Z,4.32
2023-04-22T07:43:35.803Z,4.70
2023-04-22T07:46:02.692Z,3.92
2023-04-22T07:48:29.474Z,4.90
2023-04-22T07:50:56.258Z,4.50
2023-04-22T07:53:22.914Z,4.07
2023-04-22T07:55:49.853Z,3.92
2023-04-22T07:58:17.231Z,4.88
2023-04-22T08:00:43.959Z,4.72
2023-04-22T08:03:11.022Z,7.63
2023-04-22T08:05:37.850Z,2.97
2023-04-22T08:08:05.243Z,3.70
2023-04-22T08:10:31.983Z,4.40
2023-04-22T08:12:58.743Z,4.70
2023-04-22T08:15:25.747Z,4.50
2023-04-22T08:17:52.483Z,5.40
2023-04-22T08:20:19.173Z,4.88
2023-04-22T08:22:47.132Z,5.20
2023-04-22T08:25:13.749Z,8.05
2023-04-22T08:27:40.436Z,4.15
2023-04-22T08:30:07.593Z,5.13
2023-04-22T08:32:34.583Z,3.72
2023-04-22T08:35:04.836Z,3.95
2023-04-22T08:37:32.124Z,4.60
2023-04-22T08:39:58.763Z,3.90
2023-04-22T08:42:27.242Z,4.05
2023-04-22T08:44:57.128Z,5.88
2023-04-22T08:47:25.262Z,3.97
2023-04-22T08:49:55.171Z,3.72
2023-04-22T08:52:22.132Z,3.60
2023-04-22T08:54:48.780Z,3.38
2023-04-22T08:57:16.524Z,3.85
2023-04-22T08:59:43.320Z,3.55
2023-04-22T09:02:19.332Z,4.35
2023-04-22T09:04:48.004Z,3.28
2023-04-22T09:07:23.669Z,3.28
2023-04-22T09:09:50.425Z,4.40
2023-04-22T09:12:19.087Z,3.17
2023-04-22T09:14:45.882Z,2.50
2023-04-22T09:17:16.939Z,2.83
2023-04-22T09:19:43.639Z,6.55
2023-04-22T09:22:14.258Z,3.03
2023-04-22T09:24:50.103Z,2.33
2023-04-22T09:27:21.639Z,2.35
2023-04-22T09:29:50.165Z,1.52
2023-04-22T09:32:17.781Z,2.00
2023-04-22T09:34:54.908Z,4.78
2023-04-22T09:37:26.426Z,2.30
2023-04-22T09:39:57.625Z,2.35
2023-04-22T09:42:24.296Z,2.33
2023-04-22T09:44:54.901Z,3.15
2023-04-22T09:47:23.841Z,3.70
2023-04-22T09:49:50.794Z,2.83
2023-04-22T09:52:27.070Z,3.25
2023-04-22T09:54:54.642Z,2.20
2023-04-22T09:57:22.125Z,4.63
2023-04-22T09:59:52.993Z,2.50
2023-04-22T10:02:29.867Z,2.72
2023-04-22T10:04:58.441Z,2.67
2023-04-22T10:07:31.340Z,4.20
2023-04-22T10:09:58.218Z,3.97
2023-04-22T10:12:35.298Z,3.13
2023-04-22T10:15:09.162Z,2.60
2023-04-22T10:17:38.502Z,2.33
2023-04-22T10:20:13.563Z,2.80
2023-04-22T10:22:42.865Z,2.35
2023-04-22T10:25:14.077Z,2.20
2023-04-22T10:27:40.794Z,1.58
2023-04-22T10:30:09.017Z,3.65
2023-04-22T10:32:36.368Z,2.38
2023-04-22T10:35:12.291Z,2.35
2023-04-22T10:37:42.064Z,4.25
2023-04-22T10:40:18.715Z,2.92
2023-04-22T10:42:53.160Z,1.95
2023-04-22T10:45:24.937Z,2.17
2023-04-22T10:47:51.722Z,2.42
2023-04-22T10:50:26.668Z,2.13
2023-04-22T10:53:04.574Z,2.33
2023-04-22T10:55:52.015Z,1.40
2023-04-22T10:58:20.802Z,4.10
2023-04-22T11:00:54.262Z,2.33
2023-04-22T11:03:27.556Z,4.13
2023-04-22T11:06:17.760Z,2.33
2023-04-22T11:08:46.560Z,2.50
2023-04-22T11:11:16.017Z,3.15
2023-04-22T11:13:47.501Z,2.08
2023-04-22T11:16:14.361Z,2.47
2023-04-22T11:18:41.299Z,1.30
2023-04-22T11:21:09.349Z,1.95
2023-04-22T11:23:38.851Z,1.40
2023-04-22T11:26:07.127Z,3.97
2023-04-22T11:28:33.945Z,1.27
2023-04-22T11:31:06.501Z,0.80
2023-04-22T11:33:34.729Z,1.77
2023-04-22T11:36:01.761Z,0.82
2023-04-22T11:38:28.676Z,0.77
2023-04-22T11:40:58.410Z,3.60
2023-04-22T11:43:25.292Z,2.05
2023-04-22T11:45:52.070Z,1.45
2023-04-22T11:48:18.886Z,1.38
2023-04-22T11:50:45.815Z,1.42
2023-04-22T11:53:16.678Z,2.10
2023-04-22T11:55:45.197Z,0.98
2023-04-22T11:58:13.217Z,1.63
2023-04-22T12:00:45.525Z,2.55
2023-04-22T12:03:14.730Z,2.60
2023-04-22T12:05:43.608Z,2.70
2023-04-22T12:08:16.234Z,1.60
2023-04-22T12:10:48.524Z,3.70
2023-04-22T12:13:20.988Z,2.63
2023-04-22T12:15:48.604Z,4.53
2023-04-22T12:18:15.567Z,1.77
2023-04-22T12:20:42.759Z,1.02
2023-04-22T12:23:14.577Z,3.47
2023-04-22T12:28:08.902Z,3.03
2023-04-22T12:30:35.614Z,1.58
2023-04-22T12:33:02.284Z,1.30
2023-04-22T12:35:28.979Z,1.23
2023-04-22T12:37:55.782Z,2.90
2023-04-22T12:40:22.646Z,2.55
2023-04-22T12:42:49.322Z,1.67
2023-04-22T12:45:16.857Z,1.55
2023-04-22T12:47:45.201Z,3.75
2023-04-22T12:50:12.142Z,1.98
2023-04-22T12:52:38.899Z,2.15
2023-04-22T12:55:05.914Z,1.15
2023-04-22T12:57:32.838Z,1.58
2023-04-22T12:59:59.766Z,1.67
2023-04-22T13:02:26.540Z,1.23
2023-04-22T13:04:53.236Z,1.15
2023-04-22T13:07:19.964Z,1.17
2023-04-22T13:09:46.802Z,1.83
2023-04-22T13:12:13.498Z,1.65
2023-04-22T13:14:40.284Z,1.10
2023-04-22T13:17:06.939Z,1.88
2023-04-22T13:19:35.306Z,1.42
2023-04-22T13:22:02.580Z,2.47
2023-04-22T13:24:29.533Z,2.15
2023-04-22T13:26:56.407Z,2.33
2023-04-22T13:29:23.613Z,1.88
2023-04-22T13:31:50.374Z,2.30
2023-04-22T13:34:17.108Z,2.08
2023-04-22T13:36:43.767Z,1.98
2023-04-22T13:39:10.668Z,2.35
2023-04-22T13:41:37.317Z,2.10
2023-04-22T13:44:04.518Z,2.25
2023-04-22T13:46:31.194Z,3.45
2023-04-22T13:48:58.678Z,2.72
2023-04-22T13:51:25.454Z,2.45
2023-04-22T13:53:52.112Z,2.25
2023-04-22T13:56:18.776Z,1.38
2023-04-22T13:58:45.491Z,2.20
2023-04-22T14:01:12.328Z,2.42
2023-04-22T14:03:39.108Z,2.13
2023-04-22T14:06:06.437Z,1.70
2023-04-22T14:08:33.104Z,1.77
2023-04-22T14:11:00.061Z,2.03
2023-04-22T14:13:27.498Z,1.60
2023-04-22T14:15:54.203Z,2.65
2023-04-22T14:18:23.201Z,2.35
2023-04-22T14:20:51.222Z,3.05
2023-04-22T14:23:18.876Z,1.73
2023-04-22T14:25:47.527Z,2.30
2023-04-22T14:28:16.201Z,2.05
2023-04-22T14:30:43.192Z,1.95
2023-04-22T14:33:10.055Z,1.50
2023-04-22T14:35:37.551Z,1.70
2023-04-22T14:38:08.597Z,1.95
2023-04-22T14:40:35.716Z,2.43
2023-04-22T14:43:04.623Z,3.90
2023-04-22T14:45:31.795Z,1.73
2023-04-22T14:47:58.975Z,1.60
2023-04-22T14:50:26.151Z,2.55
2023-04-22T14:52:53.418Z,2.40
2023-04-22T14:55:23.785Z,2.70
2023-04-22T14:57:53.777Z,1.00
2023-04-22T15:00:20.632Z,3.00
2023-04-22T15:02:47.522Z,1.83
2023-04-22T15:05:14.327Z,2.95
2023-04-22T15:07:40.984Z,3.55
2023-04-22T15:10:08.408Z,2.50
2023-04-22T15:12:35.087Z,2.15
2023-04-22T15:15:01.734Z,1.73
2023-04-22T15:17:30.643Z,2.45
2023-04-22T15:19:57.930Z,3.72
2023-04-22T15:22:25.386Z,3.05
2023-04-22T15:24:52.144Z,2.83
2023-04-22T15:27:19.022Z,6.93
2023-04-22T15:29:46.546Z,2.78
2023-04-22T15:32:13.312Z,1.10
2023-04-22T15:34:40.057Z,4.25
2023-04-22T15:37:06.692Z,1.70
2023-04-22T15:39:33.471Z,3.88
2023-04-22T15:42:00.139Z,5.22
2023-04-22T15:44:28.202Z,6.20
2023-04-22T15:46:55.133Z,3.42
2023-04-22T15:49:21.822Z,3.50
2023-04-22T15:51:48.437Z,3.90
2023-04-22T15:54:15.092Z,4.18
2023-04-22T15:56:41.759Z,4.15
2023-04-22T15:59:08.447Z,4.65
2023-04-22T16:01:35.512Z,2.47
2023-04-22T16:04:02.346Z,4.03
2023-04-22T16:06:29.098Z,3.70
2023-04-22T16:08:55.809Z,5.65
2023-04-22T16:11:22.468Z,2.70
2023-04-22T16:13:49.111Z,3.35
2023-04-22T16:16:16.641Z,5.88
2023-04-22T16:18:44.382Z,5.25
2023-04-22T16:21:11.300Z,3.95
2023-04-22T16:23:38.016Z,6.57
2023-04-22T16:26:05.841Z,4.38
2023-04-22T16:28:32.584Z,4.60
2023-04-22T16:30:59.353Z,9.18
2023-04-22T16:33:26.080Z,5.13
2023-04-22T16:35:52.824Z,6.43
2023-04-22T16:38:19.509Z,5.15
2023-04-22T16:40:46.405Z,3.22
2023-04-22T16:43:13.197Z,5.90
2023-04-22T16:45:40.032Z,4.10
2023-04-22T16:48:06.841Z,11.65
2023-04-22T16:50:33.581Z,7.47
2023-04-22T16:53:00.277Z,4.93
2023-04-22T16:55:26.930Z,5.78
2023-04-22T16:57:53.596Z,4.57
2023-04-22T17:00:20.939Z,4.10
2023-04-22T17:02:47.729Z,2.83
2023-04-22T17:05:14.618Z,3.13
2023-04-22T17:07:41.481Z,3.22
2023-04-22T17:10:08.757Z,4.05
2023-04-22T17:12:35.510Z,3.13
2023-04-22T17:15:02.262Z,3.35
2023-04-22T17:17:28.975Z,3.72
2023-04-22T17:19:55.624Z,5.30
2023-04-22T17:22:24.782Z,3.63
2023-04-22T17:24:52.044Z,4.07
2023-04-22T17:27:19.242Z,4.45
2023-04-22T17:29:46.530Z,4.70
2023-04-22T17:32:13.178Z,3.25
2023-04-22T17:34:40.090Z,3.55
2023-04-22T17:37:07.144Z,4.75
2023-04-22T17:39:33.868Z,6.00
2023-04-22T17:42:00.713Z,4.70
2023-04-22T17:44:27.406Z,5.18
2023-04-22T17:46:54.233Z,3.53
2023-04-22T17:49:20.892Z,4.28
2023-04-22T17:51:47.529Z,6.57
2023-04-22T17:54:14.281Z,5.65
2023-04-22T17:56:40.961Z,8.43
2023-04-22T17:59:07.738Z,4.32
2023-04-22T18:01:34.481Z,4.88
2023-04-22T18:04:01.515Z,4.38
2023-04-22T18:06:29.144Z,5.15
2023-04-22T18:08:55.871Z,5.85
2023-04-22T18:11:22.980Z,3.75
2023-04-22T18:13:49.783Z,3.60
2023-04-22T18:16:16.499Z,4.35
2023-04-22T18:18:43.155Z,4.55
2023-04-22T18:21:09.787Z,5.43
2023-04-22T18:23:36.543Z,6.25
2023-04-22T18:26:09.672Z,4.25
2023-04-22T18:28:39.728Z,5.40
2023-04-22T18:31:09.444Z,3.58
2023-04-22T18:33:36.520Z,5.72
2023-04-22T18:36:03.474Z,4.30
2023-04-22T18:38:30.203Z,5.22
2023-04-22T18:40:56.881Z,3.72
2023-04-22T18:43:23.596Z,4.00
2023-04-22T18:45:51.034Z,4.63
2023-04-22T18:48:18.880Z,3.28
2023-04-22T18:50:45.828Z,7.20
2023-04-22T18:53:12.583Z,7.75
2023-04-22T18:55:39.608Z,4.15
2023-04-22T18:58:06.269Z,3.50
2023-04-22T19:00:32.969Z,5.63
2023-04-22T19:02:59.714Z,3.20
2023-04-22T19:05:26.416Z,3.17
2023-04-22T19:07:53.213Z,2.83
2023-04-22T19:10:19.933Z,3.47
2023-04-22T19:12:46.665Z,3.45
2023-04-22T19:15:14.189Z,2.95
2023-04-22T19:17:42.595Z,4.32
2023-04-22T19:20:09.836Z,4.20
2023-04-22T19:22:36.633Z,4.68
2023-04-22T19:25:03.571Z,4.68
2023-04-22T19:27:30.394Z,3.00
2023-04-22T19:29:57.046Z,4.72
2023-04-22T19:32:23.829Z,4.15
2023-04-22T19:34:50.703Z,4.43
2023-04-22T19:37:17.404Z,2.55
2023-04-22T19:39:44.298Z,3.55
2023-04-22T19:42:11.542Z,3.40
2023-04-22T19:44:39.441Z,3.15
2023-04-22T19:47:06.351Z,5.10
2023-04-22T19:49:33.647Z,4.05
2023-04-22T19:52:02.336Z,4.88
2023-04-22T19:54:29.512Z,5.28
2023-04-22T19:56:58.543Z,4.00
2023-04-22T19:59:28.105Z,5.13
2023-04-22T20:01:55.045Z,4.43
2023-04-22T20:04:22.240Z,2.92
2023-04-22T20:06:51.483Z,4.57
2023-04-22T20:09:19.252Z,3.33
2023-04-22T20:11:46.416Z,3.25
2023-04-22T20:14:13.985Z,3.85
2023-04-22T20:16:42.341Z,5.32
2023-04-22T20:19:09.360Z,4.30
2023-04-22T20:21:36.643Z,3.70
2023-04-22T20:24:06.620Z,3.78
2023-04-22T20:26:33.545Z,4.35
2023-04-22T20:29:00.847Z,5.15
2023-04-22T20:31:27.688Z,3.13
2023-04-22T20:33:54.574Z,4.25
2023-04-22T20:36:22.528Z,3.83
2023-04-22T20:38:51.033Z,3.00
2023-04-22T20:41:20.887Z,3.13
2023-04-22T20:43:47.739Z,6.63
2023-04-22T20:46:14.615Z,5.93
2023-04-22T20:48:42.667Z,4.15
2023-04-22T20:51:09.340Z,4.10
2023-04-22T20:53:36.434Z,2.95
2023-04-22T20:56:03.456Z,5.50
2023-04-22T20:58:30.187Z,3.05
2023-04-22T21:00:56.920Z,3.60
2023-04-22T21:03:24.899Z,4.38
2023-04-22T21:05:52.422Z,4.43
2023-04-22T21:08:25.495Z,3.95
2023-04-22T21:10:54.606Z,5.97
2023-04-22T21:13:22.384Z,4.15
2023-04-22T21:15:59.313Z,5.10
2023-04-22T21:18:26.759Z,7.85
2023-04-22T21:20:56.270Z,7.28
2023-04-22T21:23:26.879Z,5.63
2023-04-22T21:25:59.325Z,5.07
2023-04-22T21:28:26.675Z,4.15
2023-04-22T21:30:53.912Z,4.43
2023-04-22T21:33:20.698Z,3.40
2023-04-22T21:35:47.662Z,5.43
2023-04-22T21:38:16.455Z,5.22
2023-04-22T21:40:43.126Z,6.50
2023-04-22T21:43:09.774Z,6.50
2023-04-22T21:45:36.471Z,7.65
2023-04-22T21:48:04.083Z,7.18
2023-04-22T21:50:31.730Z,6.60
2023-04-22T21:52:58.528Z,4.95
2023-04-22T21:55:25.209Z,4.45
2023-04-22T21:57:52.020Z,5.05
2023-04-22T22:00:19.304Z,4.53
2023-04-22T22:02:47.438Z,7.30
2023-04-22T22:05:15.583Z,5.22
2023-04-22T22:07:43.209Z,3.88
2023-04-22T22:10:15.454Z,5.22
2023-04-22T22:12:42.131Z,4.28
2023-04-22T22:15:09.940Z,4.47
2023-04-22T22:17:40.234Z,6.50
2023-04-22T22:20:11.854Z,6.30
2023-04-22T22:22:42.677Z,4.13
2023-04-22T22:25:12.197Z,3.63
2023-04-22T22:27:48.812Z,5.25
2023-04-22T22:30:17.307Z,6.38
2023-04-22T22:32:44.225Z,5.00
2023-04-22T22:35:10.998Z,6.47
2023-04-22T22:37:37.833Z,4.93
2023-04-22T22:40:05.704Z,3.78
2023-04-22T22:42:32.428Z,4.70
2023-04-22T22:44:59.066Z,4.43
2023-04-22T22:47:26.070Z,5.72
2023-04-22T22:49:53.507Z,3.50
2023-04-22T22:52:20.127Z,9.52
2023-04-22T22:54:49.122Z,6.72
2023-04-22T22:57:16.376Z,3.60
2023-04-22T22:59:43.148Z,4.43
2023-04-22T23:02:10.329Z,6.10
2023-04-22T23:04:39.491Z,3.83
2023-04-22T23:07:06.710Z,3.35
2023-04-22T23:09:33.472Z,4.35
2023-04-22T23:12:00.939Z,3.85
2023-04-22T23:14:28.198Z,4.90
2023-04-22T23:16:54.903Z,4.97
2023-04-22T23:19:22.276Z,5.40
2023-04-22T23:21:49.490Z,5.32
2023-04-22T23:24:16.475Z,5.43
2023-04-22T23:26:43.680Z,4.38
2023-04-22T23:29:10.878Z,3.63
2023-04-22T23:31:40.243Z,4.50
2023-04-22T23:34:07.534Z,3.60
2023-04-22T23:36:37.293Z,3.10
2023-04-22T23:39:05.798Z,4.35
2023-04-22T23:41:33.157Z,3.20
2023-04-22T23:43:59.997Z,3.78
2023-04-22T23:46:26.923Z,6.05
2023-04-22T23:48:54.184Z,3.42
2023-04-22T23:51:21.132Z,3.53
2023-04-22T23:53:47.775Z,3.25
2023-04-22T23:56:14.923Z,6.95
2023-04-22T23:58:42.173Z,3.72
